sensor_id;sensor_type;location;lat;lon;timestamp;P1;durP1;ratioP1;P2;durP2;ratioP2
920;SDS011;447;51.332;6.778;2023-05-07T00:00:25;2.60;;;2.40;;
920;SDS011;447;51.332;6.778;2023-05-07T00:02:53;3.50;;;2.53;;
920;SDS011;447;51.332;6.778;2023-05-07T00:05:19;2.87;;;2.57;;
920;SDS011;447;51.332;6.778;2023-05-07T00:07:45;2.43;;;2.23;;
920;SDS011;447;51.332;6.778;2023-05-07T00:10:13;4.07;;;2.90;;
920;SDS011;447;51.332;6.778;2023-05-07T00:12:41;2.90;;;2.40;;
920;SDS011;447;51.332;6.778;2023-05-07T00:15:11;3.10;;;2.50;;
920;SDS011;447;51.332;6.778;2023-05-07T00:17:37;3.17;;;2.50;;
920;SDS011;447;51.332;6.778;2023-05-07T00:20:03;3.43;;;2.23;;
920;SDS011;447;51.332;6.778;2023-05-07T00:22:31;3.20;;;2.30;;
920;SDS011;447;51.332;6.778;2023-05-07T00:25:03;3.13;;;2.90;;
920;SDS011;447;51.332;6.778;2023-05-07T00:27:30;2.90;;;2.70;;
920;SDS011;447;51.332;6.778;2023-05-07T00:29:58;2.93;;;2.50;;
920;SDS011;447;51.332;6.778;2023-05-07T00:32:26;3.30;;;2.53;;
920;SDS011;447;51.332;6.778;2023-05-07T00:34:55;3.60;;;2.00;;
920;SDS011;447;51.332;6.778;2023-05-07T00:37:23;2.60;;;2.40;;
920;SDS011;447;51.332;6.778;2023-05-07T00:39:49;2.53;;;2.10;;
920;SDS011;447;51.332;6.778;2023-05-07T00:42:18;2.67;;;2.30;;
920;SDS011;447;51.332;6.778;2023-05-07T00:44:43;2.47;;;2.27;;
920;SDS011;447;51.332;6.778;2023-05-07T00:47:14;2.00;;;1.90;;
920;SDS011;447;51.332;6.778;2023-05-07T00:49:43;3.43;;;2.33;;
920;SDS011;447;51.332;6.778;2023-05-07T00:52:11;2.50;;;2.30;;
920;SDS011;447;51.332;6.778;2023-05-07T00:54:40;3.00;;;2.30;;
920;SDS011;447;51.332;6.778;2023-05-07T00:57:07;2.80;;;2.10;;
920;SDS011;447;51.332;6.778;2023-05-07T00:59:39;3.80;;;2.50;;
920;SDS011;447;51.332;6.778;2023-05-07T01:02:06;2.70;;;2.43;;
920;SDS011;447;51.332;6.778;2023-05-07T01:04:35;5.00;;;2.57;;
920;SDS011;447;51.332;6.778;2023-05-07T01:07:01;2.97;;;2.07;;
920;SDS011;447;51.332;6.778;2023-05-07T01:09:31;3.33;;;2.40;;
920;SDS011;447;51.332;6.778;2023-05-07T01:11:57;2.40;;;2.20;;
920;SDS011;447;51.332;6.778;2023-05-07T01:14:24;2.67;;;2.47;;
920;SDS011;447;51.332;6.778;2023-05-07T01:16:52;2.57;;;2.37;;
920;SDS011;447;51.332;6.778;2023-05-07T01:19:21;2.27;;;2.07;;
920;SDS011;447;51.332;6.778;2023-05-07T01:21:48;2.40;;;2.20;;
920;SDS011;447;51.332;6.778;2023-05-07T01:24:18;4.00;;;2.30;;
920;SDS011;447;51.332;6.778;2023-05-07T01:26:45;4.83;;;2.50;;
920;SDS011;447;51.332;6.778;2023-05-07T01:29:13;2.73;;;2.40;;
920;SDS011;447;51.332;6.778;2023-05-07T01:31:42;3.20;;;2.40;;
920;SDS011;447;51.332;6.778;2023-05-07T01:34:16;3.20;;;2.43;;
920;SDS011;447;51.332;6.778;2023-05-07T01:36:43;2.50;;;2.30;;
920;SDS011;447;51.332;6.778;2023-05-07T01:39:13;2.60;;;2.20;;
920;SDS011;447;51.332;6.778;2023-05-07T01:41:40;3.30;;;2.30;;
920;SDS011;447;51.332;6.778;2023-05-07T01:44:07;3.43;;;2.23;;
920;SDS011;447;51.332;6.778;2023-05-07T01:46:33;3.70;;;2.13;;
920;SDS011;447;51.332;6.778;2023-05-07T01:49:00;2.20;;;2.00;;
920;SDS011;447;51.332;6.778;2023-05-07T01:51:28;2.50;;;2.03;;
920;SDS011;447;51.332;6.778;2023-05-07T01:53:55;2.60;;;2.20;;
920;SDS011;447;51.332;6.778;2023-05-07T01:56:22;2.20;;;2.00;;
920;SDS011;447;51.332;6.778;2023-05-07T01:58:49;3.03;;;2.73;;
920;SDS011;447;51.332;6.778;2023-05-07T02:01:16;2.60;;;2.40;;
920;SDS011;447;51.332;6.778;2023-05-07T02:03:43;3.67;;;2.40;;
920;SDS011;447;51.332;6.778;2023-05-07T02:06:18;2.40;;;2.20;;
920;SDS011;447;51.332;6.778;2023-05-07T02:08:52;2.40;;;2.20;;
920;SDS011;447;51.332;6.778;2023-05-07T02:11:20;2.67;;;2.47;;
920;SDS011;447;51.332;6.778;2023-05-07T02:13:48;2.57;;;2.37;;
920;SDS011;447;51.332;6.778;2023-05-07T02:16:18;4.53;;;2.40;;
920;SDS011;447;51.332;6.778;2023-05-07T02:18:45;3.07;;;2.40;;
920;SDS011;447;51.332;6.778;2023-05-07T02:21:11;3.43;;;2.33;;
920;SDS011;447;51.332;6.778;2023-05-07T02:23:37;4.80;;;2.10;;
920;SDS011;447;51.332;6.778;2023-05-07T02:26:05;2.73;;;2.53;;
920;SDS011;447;51.332;6.778;2023-05-07T02:28:35;2.63;;;2.43;;
920;SDS011;447;51.332;6.778;2023-05-07T02:31:03;2.47;;;2.27;;
920;SDS011;447;51.332;6.778;2023-05-07T02:33:29;2.50;;;2.30;;
920;SDS011;447;51.332;6.778;2023-05-07T02:35:59;2.37;;;2.17;;
920;SDS011;447;51.332;6.778;2023-05-07T02:38:35;2.50;;;2.30;;
920;SDS011;447;51.332;6.778;2023-05-07T02:41:04;3.60;;;2.20;;
920;SDS011;447;51.332;6.778;2023-05-07T02:43:32;5.60;;;2.23;;
920;SDS011;447;51.332;6.778;2023-05-07T02:46:08;2.40;;;2.20;;
920;SDS011;447;51.332;6.778;2023-05-07T02:48:41;2.40;;;2.20;;
920;SDS011;447;51.332;6.778;2023-05-07T02:51:09;3.00;;;2.73;;
920;SDS011;447;51.332;6.778;2023-05-07T02:53:38;2.50;;;2.30;;
920;SDS011;447;51.332;6.778;2023-05-07T02:56:04;2.20;;;2.00;;
920;SDS011;447;51.332;6.778;2023-05-07T02:58:32;2.67;;;2.47;;
920;SDS011;447;51.332;6.778;2023-05-07T03:01:00;4.07;;;2.50;;
920;SDS011;447;51.332;6.778;2023-05-07T03:03:33;2.27;;;2.07;;
920;SDS011;447;51.332;6.778;2023-05-07T03:06:02;2.33;;;2.13;;
920;SDS011;447;51.332;6.778;2023-05-07T03:08:32;4.30;;;2.03;;
920;SDS011;447;51.332;6.778;2023-05-07T03:11:02;2.50;;;2.20;;
920;SDS011;447;51.332;6.778;2023-05-07T03:13:31;2.33;;;2.13;;
920;SDS011;447;51.332;6.778;2023-05-07T03:15:57;2.33;;;2.13;;
920;SDS011;447;51.332;6.778;2023-05-07T03:18:23;2.33;;;2.13;;
920;SDS011;447;51.332;6.778;2023-05-07T03:20:49;2.33;;;2.10;;
920;SDS011;447;51.332;6.778;2023-05-07T03:23:16;5.40;;;2.20;;
920;SDS011;447;51.332;6.778;2023-05-07T03:25:46;2.57;;;2.37;;
920;SDS011;447;51.332;6.778;2023-05-07T03:28:15;2.63;;;2.10;;
920;SDS011;447;51.332;6.778;2023-05-07T03:30:50;2.60;;;2.40;;
920;SDS011;447;51.332;6.778;2023-05-07T03:33:16;2.63;;;2.40;;
920;SDS011;447;51.332;6.778;2023-05-07T03:35:42;2.53;;;2.30;;
920;SDS011;447;51.332;6.778;2023-05-07T03:38:14;2.00;;;1.90;;
920;SDS011;447;51.332;6.778;2023-05-07T03:40:40;2.30;;;2.10;;
920;SDS011;447;51.332;6.778;2023-05-07T03:43:06;2.70;;;2.50;;
920;SDS011;447;51.332;6.778;2023-05-07T03:45:36;2.50;;;2.30;;
920;SDS011;447;51.332;6.778;2023-05-07T03:48:13;2.53;;;1.97;;
920;SDS011;447;51.332;6.778;2023-05-07T03:50:40;2.40;;;2.20;;
920;SDS011;447;51.332;6.778;2023-05-07T03:53:10;3.03;;;2.00;;
920;SDS011;447;51.332;6.778;2023-05-07T03:55:41;2.20;;;2.00;;
920;SDS011;447;51.332;6.778;2023-05-07T03:58:07;2.33;;;1.90;;
920;SDS011;447;51.332;6.778;2023-05-07T04:00:33;2.50;;;2.10;;
920;SDS011;447;51.332;6.778;2023-05-07T04:03:07;2.60;;;2.20;;
920;SDS011;447;51.332;6.778;2023-05-07T04:05:38;2.80;;;2.20;;
920;SDS011;447;51.332;6.778;2023-05-07T04:08:04;2.40;;;2.13;;
920;SDS011;447;51.332;6.778;2023-05-07T04:10:40;2.30;;;2.17;;
920;SDS011;447;51.332;6.778;2023-05-07T04:13:10;2.80;;;1.97;;
920;SDS011;447;51.332;6.778;2023-05-07T04:15:38;2.30;;;2.10;;
920;SDS011;447;51.332;6.778;2023-05-07T04:18:09;2.57;;;2.37;;
920;SDS011;447;51.332;6.778;2023-05-07T04:20:42;2.80;;;2.27;;
920;SDS011;447;51.332;6.778;2023-05-07T04:23:11;2.37;;;1.93;;
920;SDS011;447;51.332;6.778;2023-05-07T04:25:38;3.10;;;2.23;;
920;SDS011;447;51.332;6.778;2023-05-07T04:28:15;2.37;;;1.90;;
920;SDS011;447;51.332;6.778;2023-05-07T04:30:41;2.33;;;2.13;;
920;SDS011;447;51.332;6.778;2023-05-07T04:33:08;2.43;;;2.23;;
920;SDS011;447;51.332;6.778;2023-05-07T04:35:36;4.90;;;2.03;;
920;SDS011;447;51.332;6.778;2023-05-07T04:38:03;3.73;;;2.40;;
920;SDS011;447;51.332;6.778;2023-05-07T04:40:38;2.33;;;1.90;;
920;SDS011;447;51.332;6.778;2023-05-07T04:43:06;2.50;;;2.23;;
920;SDS011;447;51.332;6.778;2023-05-07T04:45:39;2.57;;;1.80;;
920;SDS011;447;51.332;6.778;2023-05-07T04:48:09;2.03;;;1.90;;
920;SDS011;447;51.332;6.778;2023-05-07T04:50:39;1.80;;;1.70;;
920;SDS011;447;51.332;6.778;2023-05-07T04:53:09;1.77;;;1.50;;
920;SDS011;447;51.332;6.778;2023-05-07T04:55:37;2.10;;;1.90;;
920;SDS011;447;51.332;6.778;2023-05-07T04:58:09;3.23;;;2.13;;
920;SDS011;447;51.332;6.778;2023-05-07T05:00:40;3.20;;;1.80;;
920;SDS011;447;51.332;6.778;2023-05-07T05:03:07;2.47;;;1.90;;
920;SDS011;447;51.332;6.778;2023-05-07T05:05:37;2.20;;;2.10;;
920;SDS011;447;51.332;6.778;2023-05-07T05:08:03;2.80;;;2.30;;
920;SDS011;447;51.332;6.778;2023-05-07T05:10:30;2.70;;;2.13;;
920;SDS011;447;51.332;6.778;2023-05-07T05:12:56;2.40;;;2.20;;
920;SDS011;447;51.332;6.778;2023-05-07T05:15:25;2.20;;;2.00;;
920;SDS011;447;51.332;6.778;2023-05-07T05:17:53;2.10;;;1.90;;
920;SDS011;447;51.332;6.778;2023-05-07T05:20:25;3.70;;;2.20;;
920;SDS011;447;51.332;6.778;2023-05-07T05:22:54;2.13;;;1.93;;
920;SDS011;447;51.332;6.778;2023-05-07T05:25:23;2.87;;;2.67;;
920;SDS011;447;51.332;6.778;2023-05-07T05:27:49;1.93;;;1.73;;
920;SDS011;447;51.332;6.778;2023-05-07T05:30:20;2.40;;;2.20;;
920;SDS011;447;51.332;6.778;2023-05-07T05:32:46;2.70;;;2.47;;
920;SDS011;447;51.332;6.778;2023-05-07T05:35:12;2.37;;;2.17;;
920;SDS011;447;51.332;6.778;2023-05-07T05:37:44;2.60;;;2.40;;
920;SDS011;447;51.332;6.778;2023-05-07T05:40:13;2.50;;;2.30;;
920;SDS011;447;51.332;6.778;2023-05-07T05:42:41;2.17;;;1.97;;
920;SDS011;447;51.332;6.778;2023-05-07T05:45:10;2.33;;;2.10;;
920;SDS011;447;51.332;6.778;2023-05-07T05:47:40;2.40;;;2.20;;
920;SDS011;447;51.332;6.778;2023-05-07T05:50:06;3.10;;;2.40;;
920;SDS011;447;51.332;6.778;2023-05-07T05:52:35;2.70;;;2.50;;
920;SDS011;447;51.332;6.778;2023-05-07T05:55:02;1.87;;;1.77;;
920;SDS011;447;51.332;6.778;2023-05-07T05:57:29;2.60;;;1.90;;
920;SDS011;447;51.332;6.778;2023-05-07T05:59:55;2.27;;;2.10;;
920;SDS011;447;51.332;6.778;2023-05-07T06:02:26;2.00;;;1.80;;
920;SDS011;447;51.332;6.778;2023-05-07T06:04:57;3.23;;;2.07;;
920;SDS011;447;51.332;6.778;2023-05-07T06:07:23;3.47;;;1.90;;
920;SDS011;447;51.332;6.778;2023-05-07T06:09:49;2.80;;;2.37;;
920;SDS011;447;51.332;6.778;2023-05-07T06:12:15;2.87;;;2.37;;
920;SDS011;447;51.332;6.778;2023-05-07T06:14:45;4.33;;;2.13;;
920;SDS011;447;51.332;6.778;2023-05-07T06:17:17;2.00;;;1.77;;
920;SDS011;447;51.332;6.778;2023-05-07T06:19:46;2.00;;;1.83;;
920;SDS011;447;51.332;6.778;2023-05-07T06:22:16;2.10;;;1.90;;
920;SDS011;447;51.332;6.778;2023-05-07T06:24:42;2.47;;;2.10;;
920;SDS011;447;51.332;6.778;2023-05-07T06:27:14;3.87;;;2.57;;
920;SDS011;447;51.332;6.778;2023-05-07T06:29:44;2.30;;;2.10;;
920;SDS011;447;51.332;6.778;2023-05-07T06:32:14;2.93;;;2.67;;
920;SDS011;447;51.332;6.778;2023-05-07T06:34:42;2.67;;;2.47;;
920;SDS011;447;51.332;6.778;2023-05-07T06:37:10;2.90;;;2.03;;
920;SDS011;447;51.332;6.778;2023-05-07T06:40:01;2.30;;;2.10;;
920;SDS011;447;51.332;6.778;2023-05-07T06:42:33;2.10;;;1.90;;
920;SDS011;447;51.332;6.778;2023-05-07T06:45:16;3.60;;;2.20;;
920;SDS011;447;51.332;6.778;2023-05-07T06:47:48;2.30;;;2.10;;
920;SDS011;447;51.332;6.778;2023-05-07T06:50:16;3.20;;;2.30;;
920;SDS011;447;51.332;6.778;2023-05-07T06:52:47;2.20;;;2.00;;
920;SDS011;447;51.332;6.778;2023-05-07T06:55:14;2.30;;;2.10;;
920;SDS011;447;51.332;6.778;2023-05-07T06:57:40;2.53;;;2.10;;
920;SDS011;447;51.332;6.778;2023-05-07T07:00:07;4.13;;;2.10;;
920;SDS011;447;51.332;6.778;2023-05-07T07:02:44;2.90;;;1.90;;
920;SDS011;447;51.332;6.778;2023-05-07T07:05:17;2.40;;;2.20;;
920;SDS011;447;51.332;6.778;2023-05-07T07:07:47;2.37;;;2.17;;
920;SDS011;447;51.332;6.778;2023-05-07T07:10:19;2.10;;;1.90;;
920;SDS011;447;51.332;6.778;2023-05-07T07:12:45;2.30;;;2.10;;
920;SDS011;447;51.332;6.778;2023-05-07T07:15:13;3.30;;;2.30;;
920;SDS011;447;51.332;6.778;2023-05-07T07:17:40;2.67;;;1.90;;
920;SDS011;447;51.332;6.778;2023-05-07T07:20:06;2.73;;;2.23;;
920;SDS011;447;51.332;6.778;2023-05-07T07:22:33;2.70;;;2.50;;
920;SDS011;447;51.332;6.778;2023-05-07T07:25:00;3.47;;;2.40;;
920;SDS011;447;51.332;6.778;2023-05-07T07:27:28;3.30;;;2.20;;
920;SDS011;447;51.332;6.778;2023-05-07T07:30:00;2.30;;;2.07;;
920;SDS011;447;51.332;6.778;2023-05-07T07:32:28;4.30;;;2.10;;
920;SDS011;447;51.332;6.778;2023-05-07T07:34:54;2.30;;;2.10;;
920;SDS011;447;51.332;6.778;2023-05-07T07:37:26;4.17;;;2.23;;
920;SDS011;447;51.332;6.778;2023-05-07T07:39:55;2.30;;;2.10;;
920;SDS011;447;51.332;6.778;2023-05-07T07:42:21;3.80;;;2.30;;
920;SDS011;447;51.332;6.778;2023-05-07T07:44:47;2.50;;;2.03;;
920;SDS011;447;51.332;6.778;2023-05-07T07:47:16;2.33;;;1.93;;
920;SDS011;447;51.332;6.778;2023-05-07T07:49:45;3.67;;;2.30;;
920;SDS011;447;51.332;6.778;2023-05-07T07:52:12;3.97;;;2.33;;
920;SDS011;447;51.332;6.778;2023-05-07T07:54:38;2.90;;;2.13;;
920;SDS011;447;51.332;6.778;2023-05-07T07:57:06;2.90;;;2.47;;
920;SDS011;447;51.332;6.778;2023-05-07T07:59:33;2.20;;;2.00;;
920;SDS011;447;51.332;6.778;2023-05-07T08:02:04;3.03;;;1.87;;
920;SDS011;447;51.332;6.778;2023-05-07T08:04:31;2.87;;;2.23;;
920;SDS011;447;51.332;6.778;2023-05-07T08:07:01;2.97;;;2.13;;
920;SDS011;447;51.332;6.778;2023-05-07T08:09:32;4.13;;;2.60;;
920;SDS011;447;51.332;6.778;2023-05-07T08:12:02;2.30;;;2.10;;
920;SDS011;447;51.332;6.778;2023-05-07T08:14:35;1.97;;;1.87;;
920;SDS011;447;51.332;6.778;2023-05-07T08:17:03;2.30;;;2.10;;
920;SDS011;447;51.332;6.778;2023-05-07T08:19:30;2.90;;;2.30;;
920;SDS011;447;51.332;6.778;2023-05-07T08:21:59;2.50;;;2.17;;
920;SDS011;447;51.332;6.778;2023-05-07T08:24:28;2.10;;;1.90;;
920;SDS011;447;51.332;6.778;2023-05-07T08:26:54;2.80;;;2.37;;
920;SDS011;447;51.332;6.778;2023-05-07T08:29:29;2.77;;;2.23;;
920;SDS011;447;51.332;6.778;2023-05-07T08:31:59;2.13;;;1.90;;
920;SDS011;447;51.332;6.778;2023-05-07T08:34:27;3.03;;;2.27;;
920;SDS011;447;51.332;6.778;2023-05-07T08:37:00;2.50;;;2.30;;
920;SDS011;447;51.332;6.778;2023-05-07T08:39:32;2.43;;;2.23;;
920;SDS011;447;51.332;6.778;2023-05-07T08:41:59;3.60;;;2.30;;
920;SDS011;447;51.332;6.778;2023-05-07T08:44:35;2.50;;;2.30;;
920;SDS011;447;51.332;6.778;2023-05-07T08:47:03;2.50;;;2.30;;
920;SDS011;447;51.332;6.778;2023-05-07T08:49:33;2.30;;;2.10;;
920;SDS011;447;51.332;6.778;2023-05-07T08:52:03;2.37;;;2.17;;
920;SDS011;447;51.332;6.778;2023-05-07T08:54:36;2.43;;;1.70;;
920;SDS011;447;51.332;6.778;2023-05-07T08:57:04;2.50;;;2.30;;
920;SDS011;447;51.332;6.778;2023-05-07T08:59:32;1.87;;;1.73;;
920;SDS011;447;51.332;6.778;2023-05-07T09:01:59;2.30;;;2.10;;
920;SDS011;447;51.332;6.778;2023-05-07T09:04:29;1.87;;;1.70;;
920;SDS011;447;51.332;6.778;2023-05-07T09:06:57;2.30;;;2.00;;
920;SDS011;447;51.332;6.778;2023-05-07T09:09:29;1.60;;;1.50;;
920;SDS011;447;51.332;6.778;2023-05-07T09:11:57;8.97;;;2.30;;
920;SDS011;447;51.332;6.778;2023-05-07T09:14:27;1.93;;;1.83;;
920;SDS011;447;51.332;6.778;2023-05-07T09:16:58;1.87;;;1.77;;
920;SDS011;447;51.332;6.778;2023-05-07T09:19:27;1.97;;;1.87;;
920;SDS011;447;51.332;6.778;2023-05-07T09:22:02;1.80;;;1.63;;
920;SDS011;447;51.332;6.778;2023-05-07T09:24:49;3.40;;;2.23;;
920;SDS011;447;51.332;6.778;2023-05-07T09:27:21;2.10;;;1.90;;
920;SDS011;447;51.332;6.778;2023-05-07T09:29:50;2.50;;;2.30;;
920;SDS011;447;51.332;6.778;2023-05-07T09:32:17;3.70;;;2.50;;
920;SDS011;447;51.332;6.778;2023-05-07T09:34:43;2.47;;;2.27;;
920;SDS011;447;51.332;6.778;2023-05-07T09:37:13;2.80;;;1.90;;
920;SDS011;447;51.332;6.778;2023-05-07T09:39:42;1.93;;;1.83;;
920;SDS011;447;51.332;6.778;2023-05-07T09:42:11;2.43;;;2.10;;
920;SDS011;447;51.332;6.778;2023-05-07T09:44:38;2.20;;;1.97;;
920;SDS011;447;51.332;6.778;2023-05-07T09:47:08;2.30;;;2.10;;
920;SDS011;447;51.332;6.778;2023-05-07T09:49:41;2.03;;;1.83;;
920;SDS011;447;51.332;6.778;2023-05-07T09:52:15;2.50;;;2.30;;
920;SDS011;447;51.332;6.778;2023-05-07T09:54:46;2.20;;;2.07;;
920;SDS011;447;51.332;6.778;2023-05-07T09:57:16;1.77;;;1.67;;
920;SDS011;447;51.332;6.778;2023-05-07T09:59:49;2.10;;;1.90;;
920;SDS011;447;51.332;6.778;2023-05-07T10:02:19;1.77;;;1.67;;
920;SDS011;447;51.332;6.778;2023-05-07T10:04:51;1.87;;;1.77;;
920;SDS011;447;51.332;6.778;2023-05-07T10:07:23;2.17;;;1.97;;
920;SDS011;447;51.332;6.778;2023-05-07T10:09:54;2.60;;;2.13;;
920;SDS011;447;51.332;6.778;2023-05-07T10:12:28;1.80;;;1.70;;
920;SDS011;447;51.332;6.778;2023-05-07T10:14:55;3.83;;;1.93;;
920;SDS011;447;51.332;6.778;2023-05-07T10:17:23;2.20;;;2.00;;
920;SDS011;447;51.332;6.778;2023-05-07T10:19:50;3.10;;;1.90;;
920;SDS011;447;51.332;6.778;2023-05-07T10:22:19;3.40;;;2.40;;
920;SDS011;447;51.332;6.778;2023-05-07T10:24:47;1.80;;;1.70;;
920;SDS011;447;51.332;6.778;2023-05-07T10:27:19;4.00;;;2.30;;
920;SDS011;447;51.332;6.778;2023-05-07T10:32:56;2.60;;;2.40;;
920;SDS011;447;51.332;6.778;2023-05-07T10:35:38;1.97;;;1.70;;
920;SDS011;447;51.332;6.778;2023-05-07T10:38:08;3.73;;;2.10;;
920;SDS011;447;51.332;6.778;2023-05-07T10:40:37;2.20;;;1.70;;
920;SDS011;447;51.332;6.778;2023-05-07T10:43:06;1.77;;;1.67;;
920;SDS011;447;51.332;6.778;2023-05-07T10:45:39;2.40;;;2.20;;
920;SDS011;447;51.332;6.778;2023-05-07T10:50:33;2.10;;;2.00;;
920;SDS011;447;51.332;6.778;2023-05-07T10:58:45;2.33;;;2.13;;
920;SDS011;447;51.332;6.778;2023-05-07T11:04:24;2.53;;;1.80;;
920;SDS011;447;51.332;6.778;2023-05-07T11:15:34;3.90;;;1.67;;
920;SDS011;447;51.332;6.778;2023-05-07T11:18:08;5.20;;;2.63;;
920;SDS011;447;51.332;6.778;2023-05-07T11:26:19;2.73;;;1.83;;
920;SDS011;447;51.332;6.778;2023-05-07T11:28:51;1.97;;;1.80;;
920;SDS011;447;51.332;6.778;2023-05-07T11:31:27;2.13;;;1.93;;
920;SDS011;447;51.332;6.778;2023-05-07T11:33:56;1.87;;;1.77;;
920;SDS011;447;51.332;6.778;2023-05-07T11:36:25;1.93;;;1.50;;
920;SDS011;447;51.332;6.778;2023-05-07T11:38:56;4.20;;;2.13;;
920;SDS011;447;51.332;6.778;2023-05-07T11:41:32;1.60;;;1.50;;
920;SDS011;447;51.332;6.778;2023-05-07T11:44:05;4.73;;;1.57;;
920;SDS011;447;51.332;6.778;2023-05-07T11:46:31;5.60;;;1.70;;
920;SDS011;447;51.332;6.778;2023-05-07T11:49:01;1.90;;;1.80;;
920;SDS011;447;51.332;6.778;2023-05-07T11:51:29;1.80;;;1.70;;
920;SDS011;447;51.332;6.778;2023-05-07T11:53:58;2.07;;;1.87;;
920;SDS011;447;51.332;6.778;2023-05-07T11:56:24;2.80;;;2.00;;
920;SDS011;447;51.332;6.778;2023-05-07T11:58:50;1.90;;;1.40;;
920;SDS011;447;51.332;6.778;2023-05-07T12:01:17;1.60;;;1.50;;
920;SDS011;447;51.332;6.778;2023-05-07T12:03:46;1.57;;;1.47;;
920;SDS011;447;51.332;6.778;2023-05-07T12:06:15;1.90;;;1.70;;
920;SDS011;447;51.332;6.778;2023-05-07T12:08:42;2.43;;;1.63;;
920;SDS011;447;51.332;6.778;2023-05-07T12:11:09;1.90;;;1.67;;
920;SDS011;447;51.332;6.778;2023-05-07T12:13:38;2.30;;;2.10;;
920;SDS011;447;51.332;6.778;2023-05-07T12:16:12;1.70;;;1.60;;
920;SDS011;447;51.332;6.778;2023-05-07T12:18:41;3.30;;;2.03;;
920;SDS011;447;51.332;6.778;2023-05-07T12:21:07;1.97;;;1.43;;
920;SDS011;447;51.332;6.778;2023-05-07T12:23:35;1.67;;;1.57;;
920;SDS011;447;51.332;6.778;2023-05-07T12:26:04;4.60;;;2.13;;
920;SDS011;447;51.332;6.778;2023-05-07T12:28:36;1.80;;;1.70;;
920;SDS011;447;51.332;6.778;2023-05-07T12:31:06;1.87;;;1.70;;
920;SDS011;447;51.332;6.778;2023-05-07T12:33:37;2.23;;;1.90;;
920;SDS011;447;51.332;6.778;2023-05-07T12:36:06;5.63;;;2.00;;
920;SDS011;447;51.332;6.778;2023-05-07T12:38:37;3.77;;;2.50;;
920;SDS011;447;51.332;6.778;2023-05-07T12:41:04;1.90;;;1.80;;
920;SDS011;447;51.332;6.778;2023-05-07T12:43:33;2.50;;;2.30;;
920;SDS011;447;51.332;6.778;2023-05-07T12:46:00;1.97;;;1.77;;
920;SDS011;447;51.332;6.778;2023-05-07T12:48:31;2.50;;;2.30;;
920;SDS011;447;51.332;6.778;2023-05-07T12:50:59;2.50;;;1.80;;
920;SDS011;447;51.332;6.778;2023-05-07T12:53:29;2.20;;;2.00;;
920;SDS011;447;51.332;6.778;2023-05-07T12:55:57;2.23;;;2.03;;
920;SDS011;447;51.332;6.778;2023-05-07T12:58:28;2.40;;;2.27;;
920;SDS011;447;51.332;6.778;2023-05-07T13:01:00;2.20;;;2.00;;
920;SDS011;447;51.332;6.778;2023-05-07T13:03:31;2.20;;;2.07;;
920;SDS011;447;51.332;6.778;2023-05-07T13:05:59;2.30;;;2.10;;
920;SDS011;447;51.332;6.778;2023-05-07T13:08:30;2.90;;;2.60;;
920;SDS011;447;51.332;6.778;2023-05-07T13:11:01;2.50;;;2.30;;
920;SDS011;447;51.332;6.778;2023-05-07T13:13:31;2.67;;;2.30;;
920;SDS011;447;51.332;6.778;2023-05-07T13:16:03;2.43;;;2.23;;
920;SDS011;447;51.332;6.778;2023-05-07T13:18:30;2.40;;;2.20;;
920;SDS011;447;51.332;6.778;2023-05-07T13:20:57;2.93;;;2.30;;
920;SDS011;447;51.332;6.778;2023-05-07T13:23:23;2.67;;;2.30;;
920;SDS011;447;51.332;6.778;2023-05-07T13:25:50;3.00;;;2.10;;
920;SDS011;447;51.332;6.778;2023-05-07T13:28:18;3.20;;;2.40;;
920;SDS011;447;51.332;6.778;2023-05-07T13:30:44;3.03;;;2.73;;
920;SDS011;447;51.332;6.778;2023-05-07T13:33:10;3.03;;;2.70;;
920;SDS011;447;51.332;6.778;2023-05-07T13:35:40;2.50;;;2.30;;
920;SDS011;447;51.332;6.778;2023-05-07T13:38:07;3.63;;;2.87;;
920;SDS011;447;51.332;6.778;2023-05-07T13:40:35;2.87;;;2.60;;
920;SDS011;447;51.332;6.778;2023-05-07T13:43:01;2.77;;;2.57;;
920;SDS011;447;51.332;6.778;2023-05-07T13:45:29;2.83;;;2.63;;
920;SDS011;447;51.332;6.778;2023-05-07T13:47:56;2.77;;;2.57;;
920;SDS011;447;51.332;6.778;2023-05-07T13:50:22;3.07;;;2.80;;
920;SDS011;447;51.332;6.778;2023-05-07T13:52:51;4.57;;;3.00;;
920;SDS011;447;51.332;6.778;2023-05-07T13:55:17;4.10;;;3.70;;
920;SDS011;447;51.332;6.778;2023-05-07T13:57:44;4.00;;;3.70;;
920;SDS011;447;51.332;6.778;2023-05-07T14:00:10;4.07;;;3.77;;
920;SDS011;447;51.332;6.778;2023-05-07T14:02:44;3.60;;;3.30;;
920;SDS011;447;51.332;6.778;2023-05-07T14:05:10;5.40;;;4.53;;
920;SDS011;447;51.332;6.778;2023-05-07T14:07:43;4.37;;;3.97;;
920;SDS011;447;51.332;6.778;2023-05-07T14:10:12;4.07;;;3.67;;
920;SDS011;447;51.332;6.778;2023-05-07T14:12:40;5.87;;;3.73;;
920;SDS011;447;51.332;6.778;2023-05-07T14:15:06;5.37;;;4.10;;
920;SDS011;447;51.332;6.778;2023-05-07T14:17:35;4.73;;;4.20;;
920;SDS011;447;51.332;6.778;2023-05-07T14:20:01;4.43;;;4.07;;
920;SDS011;447;51.332;6.778;2023-05-07T14:22:31;4.67;;;4.20;;
920;SDS011;447;51.332;6.778;2023-05-07T14:25:00;4.87;;;4.47;;
920;SDS011;447;51.332;6.778;2023-05-07T14:27:26;4.93;;;4.50;;
920;SDS011;447;51.332;6.778;2023-05-07T14:29:52;4.80;;;4.40;;
920;SDS011;447;51.332;6.778;2023-05-07T14:32:21;4.93;;;4.40;;
920;SDS011;447;51.332;6.778;2023-05-07T14:34:47;5.23;;;4.53;;
920;SDS011;447;51.332;6.778;2023-05-07T14:37:16;5.40;;;5.00;;
920;SDS011;447;51.332;6.778;2023-05-07T14:39:42;4.70;;;4.00;;
920;SDS011;447;51.332;6.778;2023-05-07T14:42:10;5.93;;;4.77;;
920;SDS011;447;51.332;6.778;2023-05-07T14:44:37;5.50;;;4.93;;
920;SDS011;447;51.332;6.778;2023-05-07T14:47:06;4.93;;;4.47;;
920;SDS011;447;51.332;6.778;2023-05-07T14:49:33;4.90;;;4.50;;
920;SDS011;447;51.332;6.778;2023-05-07T14:52:02;5.13;;;4.63;;
920;SDS011;447;51.332;6.778;2023-05-07T14:54:33;5.13;;;4.20;;
920;SDS011;447;51.332;6.778;2023-05-07T14:57:00;5.00;;;4.60;;
920;SDS011;447;51.332;6.778;2023-05-07T14:59:30;5.23;;;4.73;;
920;SDS011;447;51.332;6.778;2023-05-07T15:01:56;5.13;;;4.60;;
920;SDS011;447;51.332;6.778;2023-05-07T15:04:23;5.53;;;5.03;;
920;SDS011;447;51.332;6.778;2023-05-07T15:06:52;5.40;;;4.90;;
920;SDS011;447;51.332;6.778;2023-05-07T15:09:21;4.90;;;4.30;;
920;SDS011;447;51.332;6.778;2023-05-07T15:11:47;5.43;;;4.93;;
920;SDS011;447;51.332;6.778;2023-05-07T15:14:15;5.23;;;4.73;;
920;SDS011;447;51.332;6.778;2023-05-07T15:16:44;5.63;;;5.07;;
920;SDS011;447;51.332;6.778;2023-05-07T15:19:13;5.00;;;4.60;;
920;SDS011;447;51.332;6.778;2023-05-07T15:21:42;4.70;;;4.30;;
920;SDS011;447;51.332;6.778;2023-05-07T15:24:08;6.03;;;5.43;;
920;SDS011;447;51.332;6.778;2023-05-07T15:26:39;6.63;;;5.30;;
920;SDS011;447;51.332;6.778;2023-05-07T15:29:05;5.40;;;4.90;;
920;SDS011;447;51.332;6.778;2023-05-07T15:31:35;4.90;;;4.40;;
920;SDS011;447;51.332;6.778;2023-05-07T15:34:03;4.90;;;4.50;;
920;SDS011;447;51.332;6.778;2023-05-07T15:36:31;5.20;;;4.70;;
920;SDS011;447;51.332;6.778;2023-05-07T15:38:57;5.77;;;5.27;;
920;SDS011;447;51.332;6.778;2023-05-07T15:41:27;5.20;;;4.80;;
920;SDS011;447;51.332;6.778;2023-05-07T15:43:58;6.60;;;5.27;;
920;SDS011;447;51.332;6.778;2023-05-07T15:46:24;6.23;;;4.90;;
920;SDS011;447;51.332;6.778;2023-05-07T15:48:53;6.03;;;5.47;;
920;SDS011;447;51.332;6.778;2023-05-07T15:51:22;5.53;;;5.03;;
920;SDS011;447;51.332;6.778;2023-05-07T15:53:53;6.03;;;5.53;;
920;SDS011;447;51.332;6.778;2023-05-07T15:56:20;6.37;;;5.87;;
920;SDS011;447;51.332;6.778;2023-05-07T15:58:46;5.67;;;5.20;;
920;SDS011;447;51.332;6.778;2023-05-07T16:01:13;5.67;;;5.10;;
920;SDS011;447;51.332;6.778;2023-05-07T16:03:43;6.03;;;5.53;;
920;SDS011;447;51.332;6.778;2023-05-07T16:06:11;6.50;;;4.97;;
920;SDS011;447;51.332;6.778;2023-05-07T16:08:40;5.77;;;5.27;;
920;SDS011;447;51.332;6.778;2023-05-07T16:11:10;6.10;;;5.50;;
920;SDS011;447;51.332;6.778;2023-05-07T16:13:39;5.50;;;5.00;;
920;SDS011;447;51.332;6.778;2023-05-07T16:16:07;5.97;;;5.47;;
920;SDS011;447;51.332;6.778;2023-05-07T16:18:35;5.43;;;4.80;;
920;SDS011;447;51.332;6.778;2023-05-07T16:21:01;6.03;;;5.40;;
920;SDS011;447;51.332;6.778;2023-05-07T16:23:30;5.67;;;5.17;;